ROMMA est une association bénévole à but non lucratif. Votre soutien est indispensable : ADHERER à ROMMA ou FAIRE un DON

Crempigny - (74, Haute-Savoie)

Albanais-Montagne des Princes (500 m)   Longitude: 05° 54' 5" E   Latitude: 45° 57' 0" N Station partenaire n°10
 

Détail journalier du     <<     >>

Température Precipitation Humidité Pression Vent Dir Rafale Dir. rafale Ensol. 20 cm au dessus du sol
Heure (°C) (mm) (%) (hPa) (km/h) (km/h) (min) (°C)
01:00 4.70.69910061E5E05.0
02:00 4.60.410010062E5E04.4
03:00 4.60.210010062SE6SE04.4
04:00 4.409910051SE5SE04.4
05:00 4.30100100503SE04.4
06:00 4.00.29910052SE5SE03.9
07:00 4.0010010063N6ONO03.9
08:00 4.009910061N5N03.9
09:00 4.3010010061N5N05.6
10:00 5.5010010061N6N1510.0
11:00 6.709710063NNE11NNE3010.0
12:00 7.109410054ENE13ENE010.0
13:00 8.809210055NNE16ENE3013.3
14:00 9.708010055NE13NE6011.1
15:00 9.408210055NE13ENE3511.1
16:00 7.308710065ONO11ONO607.2
17:00 6.108910065NNO11NNO55.0
18:00 5.309010076NO10NNO04.4
19:00 4.809110086NO10N03.9
20:00 4.809210084NO10N04.4
21:00 4.509110096NO11NO03.3
22:00 4.409310094ONO11NO04.4
23:00 4.709310105N11NO04.4
minuit 4.109410102N6N03.3

Graphique du 08-11-2019

 

Serveur OMMA